Αρχική σελίδα
METAR-TAF:

METAR-TAF

Αεροδρόμια :

Hays, Κάνσας, Ηνωμένες Πολιτείες Αμερικής

γεωγραφικό πλάτος: 38-51N, γεωγραφικό μήκος: 099-16W, υψόμετρο: 609 μ

Παρών καιρός

Η αναφορά έγινε 35 λεπτά πριν, στις 07:56 UTC
Άνεμος 9 kt από BA
Θερμοκρασία 23°C
Υγρασία 89%
Πίεση 1013 hPa
Ορατότητα: 16.1 χλμ
Καθαρός ουρανός

METAR: KHYS 200756Z AUTO 05009KT 10SM CLR 23/21 A2990 RMK AO2 SLP103 T02330206

Χρόνος: 03:31 (08:31 UTC)

Πρόγνωση Καιρού

Η αναφορά έγινε 3 ώρες και 0 λεπτά πριν, στις 05:31 UTC
Η πρόγνωση ισχύει από τις 20 στις 06 UTC έως τις 21 στις 06 UTC
Άνεμος 4 kt από μεταβλητές κατευθύνσεις
Ορατότητα: 10 χλμ
Καθαρός ουρανός
Από 20 στις 1600 UTC
Άνεμος 8 kt από Α
Ορατότητα: 10 χλμ
Καθαρός ουρανός

TAF: KHYS 200531Z 2006/2106 VRB04KT P6SM SKC FM201600 08008KT P6SM SKC

Μετεωρολογικές αναφορές και προγνώσεις για περισσότερα από 4000 αεροδρόμια (δελτία METAR και TAF).

Οι διαθέσιμοι σταθμοί απεικονίζονται στο χάρτη με κίτρινες και κόκκινες κουκκίδες.

Μετακινήστε το ποντίκι πάνω από τις κουκκίδες για να δείτε το όνομα του σταθμού.

Στη συνέχεια, κάντε κλικ για να δείτε τις μετεωρολογικές αναφορές και τις προγνώσεις καιρού.

Για να αλλάξετε το χάρτη: κάντε κλικ στα πράσινα κουμπιά με τον μαύρο σταυρό για να ζουμάρετε, στο πράσινο κουμπί με την παύλα για να αφαιρέσετε το ζουμ ή στα πράσινα βέλη για να αντιπαραβάλλετε χάρτες.


METAR-TAF: